sensor_id;sensor_type;location;lat;lon;timestamp;P1;durP1;ratioP1;P2;durP2;ratioP2
51614;SDS011;37695;52.960;6.188;2022-11-20T00:00:24;12.60;;;7.10;;
51614;SDS011;37695;52.960;6.188;2022-11-20T00:02:49;11.45;;;7.20;;
51614;SDS011;37695;52.960;6.188;2022-11-20T00:05:15;10.40;;;6.53;;
51614;SDS011;37695;52.960;6.188;2022-11-20T00:07:40;11.52;;;7.65;;
51614;SDS011;37695;52.960;6.188;2022-11-20T00:10:06;12.35;;;6.75;;
51614;SDS011;37695;52.960;6.188;2022-11-20T00:12:32;10.23;;;6.85;;
51614;SDS011;37695;52.960;6.188;2022-11-20T00:14:57;12.20;;;6.88;;
51614;SDS011;37695;52.960;6.188;2022-11-20T00:17:23;11.80;;;7.35;;
51614;SDS011;37695;52.960;6.188;2022-11-20T00:19:48;11.02;;;7.88;;
51614;SDS011;37695;52.960;6.188;2022-11-20T00:22:14;11.18;;;7.18;;
51614;SDS011;37695;52.960;6.188;2022-11-20T00:24:39;11.77;;;7.20;;
51614;SDS011;37695;52.960;6.188;2022-11-20T00:27:05;10.13;;;6.95;;
51614;SDS011;37695;52.960;6.188;2022-11-20T00:29:30;10.95;;;7.28;;
51614;SDS011;37695;52.960;6.188;2022-11-20T00:31:56;11.85;;;8.15;;
51614;SDS011;37695;52.960;6.188;2022-11-20T00:34:21;11.15;;;7.53;;
51614;SDS011;37695;52.960;6.188;2022-11-20T00:36:47;10.38;;;7.03;;
51614;SDS011;37695;52.960;6.188;2022-11-20T00:39:12;10.20;;;6.68;;
51614;SDS011;37695;52.960;6.188;2022-11-20T00:41:38;10.70;;;6.82;;
51614;SDS011;37695;52.960;6.188;2022-11-20T00:44:04;11.02;;;7.88;;
51614;SDS011;37695;52.960;6.188;2022-11-20T00:46:29;12.20;;;7.57;;
51614;SDS011;37695;52.960;6.188;2022-11-20T00:48:55;13.85;;;7.45;;
51614;SDS011;37695;52.960;6.188;2022-11-20T00:51:21;11.43;;;7.68;;
51614;SDS011;37695;52.960;6.188;2022-11-20T00:53:48;10.40;;;7.25;;
51614;SDS011;37695;52.960;6.188;2022-11-20T00:56:15;11.43;;;7.38;;
51614;SDS011;37695;52.960;6.188;2022-11-20T00:58:43;11.80;;;8.15;;
51614;SDS011;37695;52.960;6.188;2022-11-20T01:01:11;11.23;;;7.38;;
51614;SDS011;37695;52.960;6.188;2022-11-20T01:03:45;10.88;;;7.00;;
51614;SDS011;37695;52.960;6.188;2022-11-20T01:06:13;12.50;;;6.85;;
51614;SDS011;37695;52.960;6.188;2022-11-20T01:08:40;12.40;;;7.45;;
51614;SDS011;37695;52.960;6.188;2022-11-20T01:11:07;11.32;;;8.10;;
51614;SDS011;37695;52.960;6.188;2022-11-20T01:13:36;12.57;;;7.85;;
51614;SDS011;37695;52.960;6.188;2022-11-20T01:16:25;15.00;;;7.10;;
51614;SDS011;37695;52.960;6.188;2022-11-20T01:18:51;11.05;;;7.25;;
51614;SDS011;37695;52.960;6.188;2022-11-20T01:21:22;10.50;;;7.25;;
51614;SDS011;37695;52.960;6.188;2022-11-20T01:23:49;12.48;;;7.80;;
51614;SDS011;37695;52.960;6.188;2022-11-20T01:26:17;12.80;;;8.05;;
51614;SDS011;37695;52.960;6.188;2022-11-20T01:28:44;11.20;;;7.43;;
51614;SDS011;37695;52.960;6.188;2022-11-20T01:31:11;11.82;;;7.78;;
51614;SDS011;37695;52.960;6.188;2022-11-20T01:34:07;11.40;;;7.45;;
51614;SDS011;37695;52.960;6.188;2022-11-20T01:36:35;10.38;;;7.10;;
51614;SDS011;37695;52.960;6.188;2022-11-20T01:39:03;12.00;;;7.18;;
51614;SDS011;37695;52.960;6.188;2022-11-20T01:41:31;12.77;;;7.15;;
51614;SDS011;37695;52.960;6.188;2022-11-20T01:44:17;10.98;;;7.35;;
51614;SDS011;37695;52.960;6.188;2022-11-20T01:47:00;10.70;;;7.22;;
51614;SDS011;37695;52.960;6.188;2022-11-20T01:49:34;12.60;;;8.10;;
51614;SDS011;37695;52.960;6.188;2022-11-20T01:52:07;11.88;;;7.95;;
51614;SDS011;37695;52.960;6.188;2022-11-20T01:54:55;10.75;;;7.80;;
51614;SDS011;37695;52.960;6.188;2022-11-20T01:57:25;11.57;;;7.57;;
51614;SDS011;37695;52.960;6.188;2022-11-20T02:00:06;11.02;;;6.70;;
51614;SDS011;37695;52.960;6.188;2022-11-20T02:02:37;12.33;;;7.73;;
51614;SDS011;37695;52.960;6.188;2022-11-20T02:05:11;11.68;;;7.57;;
51614;SDS011;37695;52.960;6.188;2022-11-20T02:07:57;10.10;;;7.15;;
51614;SDS011;37695;52.960;6.188;2022-11-20T02:10:24;11.82;;;7.88;;
51614;SDS011;37695;52.960;6.188;2022-11-20T02:12:52;11.63;;;7.45;;
51614;SDS011;37695;52.960;6.188;2022-11-20T02:15:36;11.30;;;7.32;;
51614;SDS011;37695;52.960;6.188;2022-11-20T02:18:02;12.70;;;8.32;;
51614;SDS011;37695;52.960;6.188;2022-11-20T02:20:28;10.38;;;7.60;;
51614;SDS011;37695;52.960;6.188;2022-11-20T02:23:03;11.80;;;7.68;;
51614;SDS011;37695;52.960;6.188;2022-11-20T02:25:35;12.60;;;8.07;;
51614;SDS011;37695;52.960;6.188;2022-11-20T02:28:03;11.98;;;7.53;;
51614;SDS011;37695;52.960;6.188;2022-11-20T02:30:29;12.50;;;7.68;;
51614;SDS011;37695;52.960;6.188;2022-11-20T02:32:55;12.80;;;8.25;;
51614;SDS011;37695;52.960;6.188;2022-11-20T02:37:50;11.07;;;7.97;;
51614;SDS011;37695;52.960;6.188;2022-11-20T02:40:19;10.52;;;7.28;;
51614;SDS011;37695;52.960;6.188;2022-11-20T02:42:44;12.00;;;8.02;;
51614;SDS011;37695;52.960;6.188;2022-11-20T02:45:10;13.63;;;8.15;;
51614;SDS011;37695;52.960;6.188;2022-11-20T02:47:36;13.43;;;7.72;;
51614;SDS011;37695;52.960;6.188;2022-11-20T02:50:01;17.02;;;8.10;;
51614;SDS011;37695;52.960;6.188;2022-11-20T02:52:27;10.68;;;7.68;;
51614;SDS011;37695;52.960;6.188;2022-11-20T02:54:53;12.23;;;7.85;;
51614;SDS011;37695;52.960;6.188;2022-11-20T02:57:19;11.32;;;7.57;;
51614;SDS011;37695;52.960;6.188;2022-11-20T02:59:44;14.52;;;8.35;;
51614;SDS011;37695;52.960;6.188;2022-11-20T03:02:10;13.05;;;8.77;;
51614;SDS011;37695;52.960;6.188;2022-11-20T03:04:35;11.60;;;8.02;;
51614;SDS011;37695;52.960;6.188;2022-11-20T03:07:01;11.88;;;7.72;;
51614;SDS011;37695;52.960;6.188;2022-11-20T03:09:27;10.25;;;7.65;;
51614;SDS011;37695;52.960;6.188;2022-11-20T03:11:52;12.23;;;8.02;;
51614;SDS011;37695;52.960;6.188;2022-11-20T03:14:18;11.38;;;7.78;;
51614;SDS011;37695;52.960;6.188;2022-11-20T03:16:44;12.70;;;8.30;;
51614;SDS011;37695;52.960;6.188;2022-11-20T03:19:11;14.27;;;8.35;;
51614;SDS011;37695;52.960;6.188;2022-11-20T03:21:37;12.40;;;8.27;;
51614;SDS011;37695;52.960;6.188;2022-11-20T03:24:03;14.40;;;9.23;;
51614;SDS011;37695;52.960;6.188;2022-11-20T03:26:28;10.70;;;7.18;;
51614;SDS011;37695;52.960;6.188;2022-11-20T03:28:55;10.68;;;7.68;;
51614;SDS011;37695;52.960;6.188;2022-11-20T03:31:23;12.52;;;8.00;;
51614;SDS011;37695;52.960;6.188;2022-11-20T03:33:51;12.00;;;8.27;;
51614;SDS011;37695;52.960;6.188;2022-11-20T03:36:17;12.43;;;8.00;;
51614;SDS011;37695;52.960;6.188;2022-11-20T03:38:44;11.88;;;8.20;;
51614;SDS011;37695;52.960;6.188;2022-11-20T03:41:12;13.85;;;8.50;;
51614;SDS011;37695;52.960;6.188;2022-11-20T03:43:40;11.32;;;7.93;;
51614;SDS011;37695;52.960;6.188;2022-11-20T03:46:05;13.52;;;8.18;;
51614;SDS011;37695;52.960;6.188;2022-11-20T03:48:31;13.07;;;8.70;;
51614;SDS011;37695;52.960;6.188;2022-11-20T03:51:07;13.40;;;8.43;;
51614;SDS011;37695;52.960;6.188;2022-11-20T03:53:37;11.73;;;7.82;;
51614;SDS011;37695;52.960;6.188;2022-11-20T03:56:03;12.68;;;8.05;;
51614;SDS011;37695;52.960;6.188;2022-11-20T03:58:30;10.77;;;7.47;;
51614;SDS011;37695;52.960;6.188;2022-11-20T04:00:55;11.85;;;7.95;;
51614;SDS011;37695;52.960;6.188;2022-11-20T04:03:21;14.18;;;8.77;;
51614;SDS011;37695;52.960;6.188;2022-11-20T04:05:46;16.40;;;7.95;;
51614;SDS011;37695;52.960;6.188;2022-11-20T04:08:12;11.98;;;8.70;;
51614;SDS011;37695;52.960;6.188;2022-11-20T04:10:37;11.57;;;8.20;;
51614;SDS011;37695;52.960;6.188;2022-11-20T04:13:03;13.38;;;8.55;;
51614;SDS011;37695;52.960;6.188;2022-11-20T04:15:28;11.15;;;7.82;;
51614;SDS011;37695;52.960;6.188;2022-11-20T04:17:54;12.90;;;8.48;;
51614;SDS011;37695;52.960;6.188;2022-11-20T04:20:20;13.43;;;7.57;;
51614;SDS011;37695;52.960;6.188;2022-11-20T04:22:45;11.98;;;7.43;;
51614;SDS011;37695;52.960;6.188;2022-11-20T04:25:11;13.48;;;8.20;;
51614;SDS011;37695;52.960;6.188;2022-11-20T04:27:36;10.68;;;7.65;;
51614;SDS011;37695;52.960;6.188;2022-11-20T04:30:02;10.80;;;7.65;;
51614;SDS011;37695;52.960;6.188;2022-11-20T04:32:28;12.20;;;8.32;;
51614;SDS011;37695;52.960;6.188;2022-11-20T04:34:53;11.45;;;7.82;;
51614;SDS011;37695;52.960;6.188;2022-11-20T04:37:19;11.00;;;7.95;;
51614;SDS011;37695;52.960;6.188;2022-11-20T04:39:44;11.43;;;8.20;;
51614;SDS011;37695;52.960;6.188;2022-11-20T04:42:10;11.30;;;7.35;;
51614;SDS011;37695;52.960;6.188;2022-11-20T04:44:54;11.27;;;7.32;;
51614;SDS011;37695;52.960;6.188;2022-11-20T04:47:20;13.02;;;8.60;;
51614;SDS011;37695;52.960;6.188;2022-11-20T04:49:46;12.88;;;7.55;;
51614;SDS011;37695;52.960;6.188;2022-11-20T04:52:12;11.30;;;7.80;;
51614;SDS011;37695;52.960;6.188;2022-11-20T04:54:37;11.55;;;7.43;;
51614;SDS011;37695;52.960;6.188;2022-11-20T04:57:03;11.75;;;8.23;;
51614;SDS011;37695;52.960;6.188;2022-11-20T04:59:28;12.30;;;7.72;;
51614;SDS011;37695;52.960;6.188;2022-11-20T05:01:54;11.45;;;8.15;;
51614;SDS011;37695;52.960;6.188;2022-11-20T05:04:19;10.95;;;7.60;;
51614;SDS011;37695;52.960;6.188;2022-11-20T05:06:45;11.48;;;8.07;;
51614;SDS011;37695;52.960;6.188;2022-11-20T05:09:11;11.10;;;7.60;;
51614;SDS011;37695;52.960;6.188;2022-11-20T05:11:37;12.65;;;8.15;;
51614;SDS011;37695;52.960;6.188;2022-11-20T05:14:03;13.25;;;8.90;;
51614;SDS011;37695;52.960;6.188;2022-11-20T05:16:28;12.68;;;7.85;;
51614;SDS011;37695;52.960;6.188;2022-11-20T05:18:54;12.13;;;8.20;;
51614;SDS011;37695;52.960;6.188;2022-11-20T05:21:20;12.00;;;8.13;;
51614;SDS011;37695;52.960;6.188;2022-11-20T05:23:45;12.40;;;8.70;;
51614;SDS011;37695;52.960;6.188;2022-11-20T05:26:13;11.75;;;8.20;;
51614;SDS011;37695;52.960;6.188;2022-11-20T05:28:40;11.65;;;7.95;;
51614;SDS011;37695;52.960;6.188;2022-11-20T05:31:06;12.40;;;8.48;;
51614;SDS011;37695;52.960;6.188;2022-11-20T05:33:34;12.20;;;8.15;;
51614;SDS011;37695;52.960;6.188;2022-11-20T05:36:00;11.57;;;8.02;;
51614;SDS011;37695;52.960;6.188;2022-11-20T05:38:29;14.98;;;9.73;;
51614;SDS011;37695;52.960;6.188;2022-11-20T05:40:55;11.55;;;7.47;;
51614;SDS011;37695;52.960;6.188;2022-11-20T05:43:27;11.02;;;7.07;;
51614;SDS011;37695;52.960;6.188;2022-11-20T05:45:53;12.38;;;7.78;;
51614;SDS011;37695;52.960;6.188;2022-11-20T05:48:19;11.25;;;7.85;;
51614;SDS011;37695;52.960;6.188;2022-11-20T05:50:45;14.00;;;8.43;;
51614;SDS011;37695;52.960;6.188;2022-11-20T05:53:12;12.82;;;8.43;;
51614;SDS011;37695;52.960;6.188;2022-11-20T05:55:37;12.18;;;7.80;;
51614;SDS011;37695;52.960;6.188;2022-11-20T05:58:03;12.25;;;8.63;;
51614;SDS011;37695;52.960;6.188;2022-11-20T06:00:28;12.63;;;8.65;;
51614;SDS011;37695;52.960;6.188;2022-11-20T06:02:54;12.07;;;7.97;;
51614;SDS011;37695;52.960;6.188;2022-11-20T06:05:19;12.35;;;8.13;;
51614;SDS011;37695;52.960;6.188;2022-11-20T06:07:45;11.65;;;8.25;;
51614;SDS011;37695;52.960;6.188;2022-11-20T06:10:10;11.63;;;7.60;;
51614;SDS011;37695;52.960;6.188;2022-11-20T06:12:36;13.57;;;8.65;;
51614;SDS011;37695;52.960;6.188;2022-11-20T06:15:02;11.90;;;7.78;;
51614;SDS011;37695;52.960;6.188;2022-11-20T06:17:28;12.70;;;7.35;;
51614;SDS011;37695;52.960;6.188;2022-11-20T06:19:54;12.55;;;7.97;;
51614;SDS011;37695;52.960;6.188;2022-11-20T06:22:19;10.45;;;7.07;;
51614;SDS011;37695;52.960;6.188;2022-11-20T06:24:45;10.27;;;6.97;;
51614;SDS011;37695;52.960;6.188;2022-11-20T06:27:10;11.52;;;7.65;;
51614;SDS011;37695;52.960;6.188;2022-11-20T06:29:36;12.25;;;7.97;;
51614;SDS011;37695;52.960;6.188;2022-11-20T06:32:01;11.60;;;7.03;;
51614;SDS011;37695;52.960;6.188;2022-11-20T06:34:27;10.55;;;7.45;;
51614;SDS011;37695;52.960;6.188;2022-11-20T06:36:52;12.63;;;8.02;;
51614;SDS011;37695;52.960;6.188;2022-11-20T06:39:18;10.80;;;7.47;;
51614;SDS011;37695;52.960;6.188;2022-11-20T06:41:43;12.05;;;8.40;;
51614;SDS011;37695;52.960;6.188;2022-11-20T06:44:09;11.55;;;7.55;;
51614;SDS011;37695;52.960;6.188;2022-11-20T06:46:35;10.32;;;7.10;;
51614;SDS011;37695;52.960;6.188;2022-11-20T06:49:00;10.95;;;7.50;;
51614;SDS011;37695;52.960;6.188;2022-11-20T06:51:26;11.77;;;8.45;;
51614;SDS011;37695;52.960;6.188;2022-11-20T06:53:51;11.88;;;7.65;;
51614;SDS011;37695;52.960;6.188;2022-11-20T06:56:17;11.95;;;7.70;;
51614;SDS011;37695;52.960;6.188;2022-11-20T06:58:43;12.55;;;7.55;;
51614;SDS011;37695;52.960;6.188;2022-11-20T07:01:10;10.65;;;7.28;;
51614;SDS011;37695;52.960;6.188;2022-11-20T07:03:37;12.20;;;8.13;;
51614;SDS011;37695;52.960;6.188;2022-11-20T07:06:02;11.93;;;7.85;;
51614;SDS011;37695;52.960;6.188;2022-11-20T07:08:29;13.38;;;8.20;;
51614;SDS011;37695;52.960;6.188;2022-11-20T07:10:59;11.75;;;8.57;;
51614;SDS011;37695;52.960;6.188;2022-11-20T07:13:26;12.20;;;8.18;;
51614;SDS011;37695;52.960;6.188;2022-11-20T07:15:53;10.90;;;7.32;;
51614;SDS011;37695;52.960;6.188;2022-11-20T07:18:19;11.63;;;7.40;;
51614;SDS011;37695;52.960;6.188;2022-11-20T07:20:44;11.60;;;7.85;;
51614;SDS011;37695;52.960;6.188;2022-11-20T07:23:10;12.32;;;7.90;;
51614;SDS011;37695;52.960;6.188;2022-11-20T07:25:35;15.32;;;8.38;;
51614;SDS011;37695;52.960;6.188;2022-11-20T07:28:01;13.60;;;7.80;;
51614;SDS011;37695;52.960;6.188;2022-11-20T07:30:27;12.20;;;8.52;;
51614;SDS011;37695;52.960;6.188;2022-11-20T07:32:53;11.68;;;7.75;;
51614;SDS011;37695;52.960;6.188;2022-11-20T07:35:20;11.07;;;8.10;;
51614;SDS011;37695;52.960;6.188;2022-11-20T07:37:47;11.23;;;8.18;;
51614;SDS011;37695;52.960;6.188;2022-11-20T07:40:13;11.27;;;7.75;;
51614;SDS011;37695;52.960;6.188;2022-11-20T07:42:49;11.15;;;7.85;;
51614;SDS011;37695;52.960;6.188;2022-11-20T07:45:19;11.02;;;8.05;;
51614;SDS011;37695;52.960;6.188;2022-11-20T07:47:46;10.98;;;7.90;;
51614;SDS011;37695;52.960;6.188;2022-11-20T07:50:12;10.52;;;7.55;;
51614;SDS011;37695;52.960;6.188;2022-11-20T07:52:38;10.73;;;7.50;;
51614;SDS011;37695;52.960;6.188;2022-11-20T07:55:04;12.25;;;8.27;;
51614;SDS011;37695;52.960;6.188;2022-11-20T07:57:30;11.85;;;7.82;;
51614;SDS011;37695;52.960;6.188;2022-11-20T07:59:55;13.95;;;8.30;;
51614;SDS011;37695;52.960;6.188;2022-11-20T08:02:21;11.98;;;8.13;;
51614;SDS011;37695;52.960;6.188;2022-11-20T08:04:46;12.20;;;8.30;;
51614;SDS011;37695;52.960;6.188;2022-11-20T08:07:12;11.70;;;8.18;;
51614;SDS011;37695;52.960;6.188;2022-11-20T08:09:37;11.25;;;7.80;;
51614;SDS011;37695;52.960;6.188;2022-11-20T08:12:03;11.95;;;7.32;;
51614;SDS011;37695;52.960;6.188;2022-11-20T08:14:47;12.70;;;8.38;;
51614;SDS011;37695;52.960;6.188;2022-11-20T08:17:13;12.90;;;8.07;;
51614;SDS011;37695;52.960;6.188;2022-11-20T08:19:38;10.48;;;7.10;;
51614;SDS011;37695;52.960;6.188;2022-11-20T08:22:04;11.50;;;7.70;;
51614;SDS011;37695;52.960;6.188;2022-11-20T08:24:29;10.57;;;7.28;;
51614;SDS011;37695;52.960;6.188;2022-11-20T08:26:57;11.77;;;7.38;;
51614;SDS011;37695;52.960;6.188;2022-11-20T08:29:24;13.73;;;8.70;;
51614;SDS011;37695;52.960;6.188;2022-11-20T08:31:50;12.25;;;8.48;;
51614;SDS011;37695;52.960;6.188;2022-11-20T08:34:16;13.63;;;7.80;;
51614;SDS011;37695;52.960;6.188;2022-11-20T08:36:41;13.23;;;8.20;;
51614;SDS011;37695;52.960;6.188;2022-11-20T08:39:07;12.00;;;8.77;;
51614;SDS011;37695;52.960;6.188;2022-11-20T08:41:32;12.32;;;8.07;;
51614;SDS011;37695;52.960;6.188;2022-11-20T08:46:25;12.07;;;8.38;;
51614;SDS011;37695;52.960;6.188;2022-11-20T08:48:52;11.98;;;7.63;;
51614;SDS011;37695;52.960;6.188;2022-11-20T08:51:18;10.00;;;7.50;;
51614;SDS011;37695;52.960;6.188;2022-11-20T08:53:45;14.52;;;8.52;;
51614;SDS011;37695;52.960;6.188;2022-11-20T08:56:11;13.15;;;8.43;;
51614;SDS011;37695;52.960;6.188;2022-11-20T08:58:37;11.82;;;8.32;;
51614;SDS011;37695;52.960;6.188;2022-11-20T09:01:03;12.05;;;8.52;;
51614;SDS011;37695;52.960;6.188;2022-11-20T09:03:29;14.60;;;8.73;;
51614;SDS011;37695;52.960;6.188;2022-11-20T09:06:02;11.52;;;7.93;;
51614;SDS011;37695;52.960;6.188;2022-11-20T09:10:57;12.45;;;8.23;;
51614;SDS011;37695;52.960;6.188;2022-11-20T09:13:23;12.50;;;7.78;;
51614;SDS011;37695;52.960;6.188;2022-11-20T09:15:54;12.13;;;8.07;;
51614;SDS011;37695;52.960;6.188;2022-11-20T09:18:20;13.63;;;8.93;;
51614;SDS011;37695;52.960;6.188;2022-11-20T09:20:46;11.65;;;7.97;;
51614;SDS011;37695;52.960;6.188;2022-11-20T09:23:11;13.05;;;8.48;;
51614;SDS011;37695;52.960;6.188;2022-11-20T09:25:37;12.60;;;8.57;;
51614;SDS011;37695;52.960;6.188;2022-11-20T09:28:02;12.60;;;8.30;;
51614;SDS011;37695;52.960;6.188;2022-11-20T09:30:28;12.52;;;8.15;;
51614;SDS011;37695;52.960;6.188;2022-11-20T09:32:53;12.73;;;8.40;;
51614;SDS011;37695;52.960;6.188;2022-11-20T09:35:19;12.23;;;7.93;;
51614;SDS011;37695;52.960;6.188;2022-11-20T09:37:45;12.45;;;8.18;;
51614;SDS011;37695;52.960;6.188;2022-11-20T09:40:18;10.57;;;7.68;;
51614;SDS011;37695;52.960;6.188;2022-11-20T09:45:17;12.27;;;8.25;;
51614;SDS011;37695;52.960;6.188;2022-11-20T09:47:58;10.43;;;7.40;;
51614;SDS011;37695;52.960;6.188;2022-11-20T09:56:00;10.15;;;7.63;;
51614;SDS011;37695;52.960;6.188;2022-11-20T09:58:41;9.85;;;7.15;;
51614;SDS011;37695;52.960;6.188;2022-11-20T10:01:16;12.07;;;6.78;;
51614;SDS011;37695;52.960;6.188;2022-11-20T10:08:59;10.25;;;7.13;;
51614;SDS011;37695;52.960;6.188;2022-11-20T10:14:29;10.20;;;6.25;;
51614;SDS011;37695;52.960;6.188;2022-11-20T10:17:31;9.45;;;6.65;;
51614;SDS011;37695;52.960;6.188;2022-11-20T10:23:16;9.93;;;6.00;;
51614;SDS011;37695;52.960;6.188;2022-11-20T10:25:56;8.85;;;6.30;;
51614;SDS011;37695;52.960;6.188;2022-11-20T10:31:36;9.15;;;5.93;;
51614;SDS011;37695;52.960;6.188;2022-11-20T10:34:23;8.00;;;5.60;;
51614;SDS011;37695;52.960;6.188;2022-11-20T10:37:09;9.10;;;6.13;;
51614;SDS011;37695;52.960;6.188;2022-11-20T10:39:49;8.30;;;6.05;;
51614;SDS011;37695;52.960;6.188;2022-11-20T10:47:49;9.55;;;6.35;;
51614;SDS011;37695;52.960;6.188;2022-11-20T10:50:20;9.10;;;5.97;;
51614;SDS011;37695;52.960;6.188;2022-11-20T10:55:54;8.55;;;6.25;;
51614;SDS011;37695;52.960;6.188;2022-11-20T10:58:29;8.25;;;6.28;;
51614;SDS011;37695;52.960;6.188;2022-11-20T11:03:41;7.35;;;5.45;;
51614;SDS011;37695;52.960;6.188;2022-11-20T11:06:10;8.45;;;5.97;;
51614;SDS011;37695;52.960;6.188;2022-11-20T11:08:45;7.65;;;5.32;;
51614;SDS011;37695;52.960;6.188;2022-11-20T11:11:19;7.45;;;5.45;;
51614;SDS011;37695;52.960;6.188;2022-11-20T11:13:45;9.60;;;6.05;;
51614;SDS011;37695;52.960;6.188;2022-11-20T11:16:26;8.20;;;5.90;;
51614;SDS011;37695;52.960;6.188;2022-11-20T11:19:02;7.85;;;5.55;;
51614;SDS011;37695;52.960;6.188;2022-11-20T11:21:29;7.10;;;4.95;;
51614;SDS011;37695;52.960;6.188;2022-11-20T11:23:59;6.47;;;4.75;;
51614;SDS011;37695;52.960;6.188;2022-11-20T11:26:26;7.10;;;4.97;;
51614;SDS011;37695;52.960;6.188;2022-11-20T11:28:52;9.30;;;6.15;;
51614;SDS011;37695;52.960;6.188;2022-11-20T11:31:29;7.72;;;5.60;;
51614;SDS011;37695;52.960;6.188;2022-11-20T11:34:12;8.75;;;5.88;;
51614;SDS011;37695;52.960;6.188;2022-11-20T11:36:40;7.63;;;5.35;;
51614;SDS011;37695;52.960;6.188;2022-11-20T11:39:17;8.35;;;6.20;;
51614;SDS011;37695;52.960;6.188;2022-11-20T11:41:44;8.20;;;5.30;;
51614;SDS011;37695;52.960;6.188;2022-11-20T11:44:20;9.05;;;6.18;;
51614;SDS011;37695;52.960;6.188;2022-11-20T11:47:08;8.30;;;5.50;;
51614;SDS011;37695;52.960;6.188;2022-11-20T11:49:41;8.07;;;6.00;;
51614;SDS011;37695;52.960;6.188;2022-11-20T11:54:49;7.65;;;5.30;;
51614;SDS011;37695;52.960;6.188;2022-11-20T11:59:54;8.48;;;5.65;;
51614;SDS011;37695;52.960;6.188;2022-11-20T12:02:36;8.82;;;5.72;;
51614;SDS011;37695;52.960;6.188;2022-11-20T12:07:39;8.13;;;5.40;;
51614;SDS011;37695;52.960;6.188;2022-11-20T12:10:33;7.30;;;5.30;;
51614;SDS011;37695;52.960;6.188;2022-11-20T12:13:04;6.85;;;4.90;;
51614;SDS011;37695;52.960;6.188;2022-11-20T12:15:48;7.30;;;4.88;;
51614;SDS011;37695;52.960;6.188;2022-11-20T12:18:15;6.68;;;4.40;;
51614;SDS011;37695;52.960;6.188;2022-11-20T12:21:06;6.75;;;4.82;;
51614;SDS011;37695;52.960;6.188;2022-11-20T12:26:53;7.43;;;5.05;;
51614;SDS011;37695;52.960;6.188;2022-11-20T12:29:43;7.72;;;4.95;;
51614;SDS011;37695;52.960;6.188;2022-11-20T12:35:37;5.90;;;4.00;;
51614;SDS011;37695;52.960;6.188;2022-11-20T12:53:04;7.50;;;5.05;;
51614;SDS011;37695;52.960;6.188;2022-11-20T12:58:36;9.40;;;4.88;;
51614;SDS011;37695;52.960;6.188;2022-11-20T13:01:34;8.45;;;5.18;;
51614;SDS011;37695;52.960;6.188;2022-11-20T13:07:12;9.77;;;5.40;;
51614;SDS011;37695;52.960;6.188;2022-11-20T13:09:46;6.80;;;4.60;;
51614;SDS011;37695;52.960;6.188;2022-11-20T13:17:51;7.45;;;4.75;;
51614;SDS011;37695;52.960;6.188;2022-11-20T13:20:20;7.60;;;5.43;;
51614;SDS011;37695;52.960;6.188;2022-11-20T13:25:29;7.38;;;5.20;;
51614;SDS011;37695;52.960;6.188;2022-11-20T13:27:57;8.23;;;5.65;;
51614;SDS011;37695;52.960;6.188;2022-11-20T13:30:26;8.07;;;5.63;;
51614;SDS011;37695;52.960;6.188;2022-11-20T13:35:35;7.30;;;5.50;;
51614;SDS011;37695;52.960;6.188;2022-11-20T13:40:49;9.20;;;6.15;;
51614;SDS011;37695;52.960;6.188;2022-11-20T13:43:26;8.65;;;6.15;;
51614;SDS011;37695;52.960;6.188;2022-11-20T13:46:04;9.63;;;6.68;;
51614;SDS011;37695;52.960;6.188;2022-11-20T13:48:49;8.55;;;5.68;;
51614;SDS011;37695;52.960;6.188;2022-11-20T13:51:25;8.40;;;6.25;;
51614;SDS011;37695;52.960;6.188;2022-11-20T13:59:57;9.55;;;6.45;;
51614;SDS011;37695;52.960;6.188;2022-11-20T14:02:30;8.05;;;5.60;;
51614;SDS011;37695;52.960;6.188;2022-11-20T14:04:58;8.65;;;5.93;;
51614;SDS011;37695;52.960;6.188;2022-11-20T14:07:31;9.07;;;6.28;;
51614;SDS011;37695;52.960;6.188;2022-11-20T14:10:01;10.32;;;6.00;;
51614;SDS011;37695;52.960;6.188;2022-11-20T14:12:28;8.60;;;6.53;;
51614;SDS011;37695;52.960;6.188;2022-11-20T14:14:55;9.45;;;6.53;;
51614;SDS011;37695;52.960;6.188;2022-11-20T14:17:22;8.95;;;6.72;;
51614;SDS011;37695;52.960;6.188;2022-11-20T14:19:58;9.13;;;6.53;;
51614;SDS011;37695;52.960;6.188;2022-11-20T14:22:29;10.13;;;6.50;;
51614;SDS011;37695;52.960;6.188;2022-11-20T14:25:40;8.98;;;6.25;;
51614;SDS011;37695;52.960;6.188;2022-11-20T14:27:42;9.05;;;6.65;;
51614;SDS011;37695;52.960;6.188;2022-11-20T14:30:12;11.10;;;6.47;;
51614;SDS011;37695;52.960;6.188;2022-11-20T14:32:41;9.35;;;6.78;;
51614;SDS011;37695;52.960;6.188;2022-11-20T14:35:08;9.60;;;6.35;;
51614;SDS011;37695;52.960;6.188;2022-11-20T14:37:39;10.45;;;7.25;;
51614;SDS011;37695;52.960;6.188;2022-11-20T14:42:57;9.27;;;6.45;;
51614;SDS011;37695;52.960;6.188;2022-11-20T14:45:24;8.88;;;6.82;;
51614;SDS011;37695;52.960;6.188;2022-11-20T14:47:51;9.77;;;6.63;;
51614;SDS011;37695;52.960;6.188;2022-11-20T14:50:25;9.52;;;6.85;;
51614;SDS011;37695;52.960;6.188;2022-11-20T14:52:57;10.60;;;6.65;;
51614;SDS011;37695;52.960;6.188;2022-11-20T14:55:35;8.98;;;6.90;;
51614;SDS011;37695;52.960;6.188;2022-11-20T14:58:03;10.77;;;7.30;;
51614;SDS011;37695;52.960;6.188;2022-11-20T15:00:31;9.75;;;6.55;;
51614;SDS011;37695;52.960;6.188;2022-11-20T15:02:58;10.10;;;6.95;;
51614;SDS011;37695;52.960;6.188;2022-11-20T15:05:25;10.52;;;7.35;;
51614;SDS011;37695;52.960;6.188;2022-11-20T15:08:10;10.05;;;7.07;;
51614;SDS011;37695;52.960;6.188;2022-11-20T15:10:36;9.52;;;7.05;;
51614;SDS011;37695;52.960;6.188;2022-11-20T15:13:04;12.00;;;7.50;;
51614;SDS011;37695;52.960;6.188;2022-11-20T15:15:39;12.68;;;6.95;;
51614;SDS011;37695;52.960;6.188;2022-11-20T15:18:21;13.15;;;7.38;;
51614;SDS011;37695;52.960;6.188;2022-11-20T15:20:55;10.73;;;7.72;;
51614;SDS011;37695;52.960;6.188;2022-11-20T15:23:22;10.75;;;7.75;;
51614;SDS011;37695;52.960;6.188;2022-11-20T15:25:48;10.48;;;7.68;;
51614;SDS011;37695;52.960;6.188;2022-11-20T15:28:21;10.15;;;7.30;;
51614;SDS011;37695;52.960;6.188;2022-11-20T15:30:48;10.90;;;7.60;;
51614;SDS011;37695;52.960;6.188;2022-11-20T15:33:15;10.15;;;7.45;;
51614;SDS011;37695;52.960;6.188;2022-11-20T15:35:41;10.10;;;7.32;;
51614;SDS011;37695;52.960;6.188;2022-11-20T15:38:08;10.95;;;7.70;;
51614;SDS011;37695;52.960;6.188;2022-11-20T15:40:33;9.63;;;7.13;;
51614;SDS011;37695;52.960;6.188;2022-11-20T15:42:59;10.88;;;7.57;;
51614;SDS011;37695;52.960;6.188;2022-11-20T15:45:32;9.25;;;6.97;;
51614;SDS011;37695;52.960;6.188;2022-11-20T15:48:20;11.60;;;7.07;;
51614;SDS011;37695;52.960;6.188;2022-11-20T15:53:30;12.93;;;7.88;;
51614;SDS011;37695;52.960;6.188;2022-11-20T15:55:55;10.18;;;7.22;;
51614;SDS011;37695;52.960;6.188;2022-11-20T15:58:21;10.77;;;7.43;;
51614;SDS011;37695;52.960;6.188;2022-11-20T16:00:48;12.15;;;8.27;;
51614;SDS011;37695;52.960;6.188;2022-11-20T16:03:14;12.32;;;8.43;;
51614;SDS011;37695;52.960;6.188;2022-11-20T16:05:41;12.95;;;8.85;;
51614;SDS011;37695;52.960;6.188;2022-11-20T16:08:07;10.27;;;7.68;;
51614;SDS011;37695;52.960;6.188;2022-11-20T16:10:32;10.43;;;7.70;;
51614;SDS011;37695;52.960;6.188;2022-11-20T16:12:58;11.52;;;7.63;;
51614;SDS011;37695;52.960;6.188;2022-11-20T16:15:43;10.70;;;7.77;;
51614;SDS011;37695;52.960;6.188;2022-11-20T16:20:45;9.23;;;6.60;;
51614;SDS011;37695;52.960;6.188;2022-11-20T16:23:12;12.90;;;7.55;;
51614;SDS011;37695;52.960;6.188;2022-11-20T16:25:37;9.80;;;6.20;;
51614;SDS011;37695;52.960;6.188;2022-11-20T16:28:04;11.30;;;8.18;;
51614;SDS011;37695;52.960;6.188;2022-11-20T16:30:30;11.88;;;7.50;;
51614;SDS011;37695;52.960;6.188;2022-11-20T16:32:58;10.43;;;7.40;;